Weather at Borgund heliport

Public forecast

Using degrees Celsius for public forecast. Weather courtesy of forecast.io.

Closest aviation weather report (METAR) to Borgund heliport

Closest report is Sogndal Airport, Hauk√•sen, 20.6 nm (38.1 km) WNW.

2024/05/19 22:50 (retrieved 40 minutes ago)

ENSG 192250Z AUTO 00000KT 9999 NCD 04/02 Q1017 RMK WIND 3806FT 14003KT

Closest aviation forecast (TAF) to Borgund heliport

Closest forecast is Bergen Airport, Flesland, 89.1 nm (165.1 km) WSW.

2024/05/19 18:36 (retrieved 5 hours ago)

TAF ENBR 191700Z 1918/2018 34012KT CAVOK BECMG 2009/2012 26005KT